KAL1178 RKPC-RKSS
Flight info
| Callsign | KAL1178 |
|---|---|
| Flight time | 0h 43m |
| Altitude | 23000 |
| Route | KAMIT1W KAMIT Y722 OLMEN OLMEN2T |
| Aircraft | B738/M-SDE2E3FGHIRWXY/LB1 |
Departure
| Time | 2026-04-29 03:49 |
|---|---|
| Airport | Jeju International Airport (RKPC) |
Arrival
| Time | 2026-04-29 04:33 |
|---|---|
| Airport | Gimpo International Airport (RKSS) |
| Time | Latitude | Longitude | Altitude | Speed | Heading |
|---|---|---|---|---|---|
| 2026-04-29 03:31 | 33.50764 | 126.49240 | 76 ft | 0 kts | 169° |
| 2026-04-29 03:41 | 33.50772 | 126.49237 | 66 ft | 2 kts | 164° |
| 2026-04-29 03:41 | 33.50788 | 126.49232 | 71 ft | 2 kts | 160° |
| 2026-04-29 03:41 | 33.50803 | 126.49224 | 65 ft | 2 kts | 149° |
| 2026-04-29 03:41 | 33.50816 | 126.49212 | 64 ft | 2 kts | 126° |
| 2026-04-29 03:42 | 33.50822 | 126.49194 | 66 ft | 2 kts | 86° |
| 2026-04-29 03:42 | 33.50820 | 126.49180 | 65 ft | 1 kts | 65° |
| 2026-04-29 03:42 | 33.50820 | 126.49179 | 65 ft | 0 kts | 64° |
| 2026-04-29 03:45 | 33.50827 | 126.49194 | 67 ft | 7 kts | 62° |
| 2026-04-29 03:45 | 33.50872 | 126.49285 | 70 ft | 17 kts | 57° |
| 2026-04-29 03:46 | 33.50927 | 126.49401 | 71 ft | 15 kts | 61° |
| 2026-04-29 03:46 | 33.50983 | 126.49504 | 60 ft | 15 kts | 57° |
| 2026-04-29 03:46 | 33.51044 | 126.49595 | 67 ft | 14 kts | 38° |
| 2026-04-29 03:46 | 33.51130 | 126.49640 | 65 ft | 13 kts | 20° |
| 2026-04-29 03:47 | 33.51217 | 126.49678 | 59 ft | 14 kts | 20° |
| 2026-04-29 03:47 | 33.51287 | 126.49748 | 62 ft | 13 kts | 57° |
| 2026-04-29 03:47 | 33.51348 | 126.49822 | 54 ft | 13 kts | 13° |
| 2026-04-29 03:47 | 33.51393 | 126.49813 | 57 ft | 0 kts | 332° |
| 2026-04-29 03:48 | 33.51418 | 126.49796 | 52 ft | 10 kts | 328° |
| 2026-04-29 03:48 | 33.51459 | 126.49702 | 62 ft | 14 kts | 265° |
| 2026-04-29 03:48 | 33.51409 | 126.49596 | 56 ft | 18 kts | 238° |
| 2026-04-29 03:49 | 33.51231 | 126.49247 | 63 ft | 81 kts | 238° |
| 2026-04-29 03:49 | 33.50832 | 126.48479 | 84 ft | 134 kts | 238° |
| 2026-04-29 03:49 | 33.50262 | 126.47407 | 275 ft | 161 kts | 237° |
| 2026-04-29 03:49 | 33.49638 | 126.46235 | 770 ft | 175 kts | 242° |
| 2026-04-29 03:50 | 33.48999 | 126.44970 | 1385 ft | 183 kts | 241° |
| 2026-04-29 03:50 | 33.48289 | 126.43569 | 1695 ft | 211 kts | 241° |
| 2026-04-29 03:50 | 33.47490 | 126.42002 | 1906 ft | 235 kts | 241° |
| 2026-04-29 03:50 | 33.46585 | 126.40235 | 2111 ft | 258 kts | 240° |
| 2026-04-29 03:51 | 33.45633 | 126.38365 | 2535 ft | 271 kts | 243° |
| 2026-04-29 03:51 | 33.45154 | 126.36213 | 3273 ft | 267 kts | 276° |
| 2026-04-29 03:51 | 33.45645 | 126.34127 | 4157 ft | 258 kts | 304° |
| 2026-04-29 03:51 | 33.46821 | 126.32564 | 5058 ft | 253 kts | 325° |
| 2026-04-29 03:52 | 33.48393 | 126.31609 | 5781 ft | 257 kts | 338° |
| 2026-04-29 03:52 | 33.50090 | 126.30864 | 6462 ft | 263 kts | 338° |
| 2026-04-29 03:52 | 33.51845 | 126.30121 | 7092 ft | 270 kts | 338° |
| 2026-04-29 03:52 | 33.53620 | 126.29366 | 7807 ft | 272 kts | 336° |
| 2026-04-29 03:53 | 33.55418 | 126.28598 | 8492 ft | 276 kts | 338° |
| 2026-04-29 03:53 | 33.56687 | 126.28309 | 8908 ft | 288 kts | 356° |
| 2026-04-29 03:53 | 33.58654 | 126.28962 | 9563 ft | 304 kts | 25° |
| 2026-04-29 03:53 | 33.60493 | 126.30275 | 10178 ft | 311 kts | 27° |
| 2026-04-29 03:54 | 33.62377 | 126.31644 | 10684 ft | 321 kts | 27° |
| 2026-04-29 03:54 | 33.64354 | 126.33082 | 10837 ft | 343 kts | 27° |
| 2026-04-29 03:54 | 33.66428 | 126.34586 | 11023 ft | 363 kts | 27° |
| 2026-04-29 03:54 | 33.68653 | 126.36193 | 11170 ft | 382 kts | 27° |
| 2026-04-29 03:55 | 33.70988 | 126.37877 | 11350 ft | 399 kts | 27° |
| 2026-04-29 03:55 | 33.73395 | 126.39611 | 11757 ft | 407 kts | 27° |
| 2026-04-29 03:55 | 33.75839 | 126.41371 | 12303 ft | 412 kts | 27° |
| 2026-04-29 03:55 | 33.78309 | 126.43148 | 12854 ft | 416 kts | 27° |
| 2026-04-29 03:56 | 33.80808 | 126.44945 | 13402 ft | 421 kts | 27° |
| 2026-04-29 03:56 | 33.83334 | 126.46761 | 13951 ft | 426 kts | 27° |
| 2026-04-29 03:56 | 33.85887 | 126.48596 | 14448 ft | 430 kts | 27° |
| 2026-04-29 03:56 | 33.88478 | 126.50459 | 14934 ft | 435 kts | 27° |
| 2026-04-29 03:57 | 33.91093 | 126.52341 | 15390 ft | 440 kts | 26° |
| 2026-04-29 03:57 | 33.93745 | 126.54250 | 15869 ft | 445 kts | 26° |
| 2026-04-29 03:57 | 33.96387 | 126.56154 | 16356 ft | 449 kts | 26° |
| 2026-04-29 03:57 | 33.99081 | 126.58097 | 16827 ft | 454 kts | 26° |
| 2026-04-29 03:58 | 34.01801 | 126.60060 | 17295 ft | 458 kts | 26° |
| 2026-04-29 03:58 | 34.04550 | 126.62047 | 17763 ft | 462 kts | 26° |
| 2026-04-29 03:58 | 34.07318 | 126.64048 | 18190 ft | 466 kts | 26° |
| 2026-04-29 03:58 | 34.10120 | 126.66075 | 18583 ft | 470 kts | 26° |
| 2026-04-29 03:59 | 34.12941 | 126.68119 | 18959 ft | 474 kts | 26° |
| 2026-04-29 03:59 | 34.15770 | 126.70171 | 19361 ft | 476 kts | 26° |
| 2026-04-29 03:59 | 34.18581 | 126.72209 | 19795 ft | 478 kts | 26° |
| 2026-04-29 03:59 | 34.21434 | 126.74278 | 20202 ft | 479 kts | 25° |
| 2026-04-29 04:00 | 34.24409 | 126.76078 | 20516 ft | 476 kts | 15° |
| 2026-04-29 04:00 | 34.27554 | 126.77283 | 20860 ft | 470 kts | 6° |
| 2026-04-29 04:00 | 34.30758 | 126.77888 | 21320 ft | 461 kts | 357° |
| 2026-04-29 04:00 | 34.33951 | 126.78197 | 21883 ft | 458 kts | 356° |
| 2026-04-29 04:01 | 34.37083 | 126.78486 | 22360 ft | 459 kts | 356° |
| 2026-04-29 04:01 | 34.40288 | 126.78783 | 22593 ft | 465 kts | 356° |
| 2026-04-29 04:01 | 34.43536 | 126.79096 | 22795 ft | 472 kts | 356° |
| 2026-04-29 04:01 | 34.46821 | 126.79427 | 23031 ft | 476 kts | 356° |
| 2026-04-29 04:02 | 34.50144 | 126.79775 | 23185 ft | 480 kts | 357° |
| 2026-04-29 04:02 | 34.53488 | 126.80132 | 23179 ft | 481 kts | 357° |
| 2026-04-29 04:02 | 34.56810 | 126.80493 | 23190 ft | 477 kts | 357° |
| 2026-04-29 04:02 | 34.60107 | 126.80854 | 23192 ft | 475 kts | 356° |
| 2026-04-29 04:03 | 34.63410 | 126.81211 | 23178 ft | 476 kts | 356° |
| 2026-04-29 04:03 | 34.66722 | 126.81566 | 23181 ft | 476 kts | 356° |
| 2026-04-29 04:03 | 34.69982 | 126.81915 | 23170 ft | 476 kts | 356° |
| 2026-04-29 04:03 | 34.73299 | 126.82268 | 23186 ft | 481 kts | 356° |
| 2026-04-29 04:04 | 34.76653 | 126.82623 | 23203 ft | 487 kts | 356° |
| 2026-04-29 04:04 | 34.80046 | 126.82983 | 23181 ft | 491 kts | 357° |
| 2026-04-29 04:04 | 34.83448 | 126.83350 | 23164 ft | 489 kts | 357° |
| 2026-04-29 04:04 | 34.86848 | 126.83721 | 23177 ft | 488 kts | 357° |
| 2026-04-29 04:05 | 34.90227 | 126.84089 | 23173 ft | 487 kts | 357° |
| 2026-04-29 04:05 | 34.93605 | 126.84454 | 23169 ft | 486 kts | 357° |
| 2026-04-29 04:05 | 34.96974 | 126.84817 | 23175 ft | 486 kts | 357° |
| 2026-04-29 04:05 | 35.00347 | 126.85181 | 23177 ft | 486 kts | 357° |
| 2026-04-29 04:06 | 35.03715 | 126.85544 | 23169 ft | 486 kts | 357° |
| 2026-04-29 04:06 | 35.07087 | 126.85908 | 23183 ft | 487 kts | 357° |
| 2026-04-29 04:06 | 35.10423 | 126.86268 | 23176 ft | 488 kts | 357° |
| 2026-04-29 04:06 | 35.13818 | 126.86635 | 23181 ft | 489 kts | 357° |
| 2026-04-29 04:07 | 35.17219 | 126.87003 | 23194 ft | 490 kts | 357° |
| 2026-04-29 04:07 | 35.20621 | 126.87372 | 23183 ft | 491 kts | 357° |
| 2026-04-29 04:07 | 35.24024 | 126.87742 | 23179 ft | 491 kts | 357° |
| 2026-04-29 04:07 | 35.27430 | 126.88113 | 23175 ft | 491 kts | 357° |
| 2026-04-29 04:08 | 35.30830 | 126.88484 | 23185 ft | 490 kts | 357° |
| 2026-04-29 04:08 | 35.34235 | 126.88855 | 23165 ft | 490 kts | 357° |
| 2026-04-29 04:08 | 35.37635 | 126.89227 | 23190 ft | 487 kts | 358° |
| 2026-04-29 04:08 | 35.40967 | 126.89591 | 23188 ft | 486 kts | 357° |
| 2026-04-29 04:09 | 35.44339 | 126.89958 | 23181 ft | 486 kts | 357° |
| 2026-04-29 04:09 | 35.47702 | 126.90325 | 23170 ft | 485 kts | 357° |
| 2026-04-29 04:09 | 35.51061 | 126.90693 | 23168 ft | 484 kts | 357° |
| 2026-04-29 04:09 | 35.54420 | 126.91060 | 23212 ft | 484 kts | 357° |
| 2026-04-29 04:10 | 35.57776 | 126.91426 | 23181 ft | 485 kts | 358° |
| 2026-04-29 04:10 | 35.61137 | 126.91794 | 23184 ft | 485 kts | 358° |
| 2026-04-29 04:10 | 35.64500 | 126.92162 | 23181 ft | 485 kts | 358° |
| 2026-04-29 04:10 | 35.67863 | 126.92530 | 23175 ft | 485 kts | 358° |
| 2026-04-29 04:11 | 35.71225 | 126.92899 | 23179 ft | 485 kts | 358° |
| 2026-04-29 04:11 | 35.74585 | 126.93269 | 23193 ft | 485 kts | 358° |
| 2026-04-29 04:11 | 35.77947 | 126.93638 | 23184 ft | 485 kts | 358° |
| 2026-04-29 04:11 | 35.81316 | 126.94009 | 23178 ft | 485 kts | 358° |
| 2026-04-29 04:12 | 35.84677 | 126.94379 | 23181 ft | 485 kts | 358° |
| 2026-04-29 04:12 | 35.88043 | 126.94750 | 23174 ft | 485 kts | 358° |
| 2026-04-29 04:12 | 35.91405 | 126.95121 | 23173 ft | 485 kts | 358° |
| 2026-04-29 04:12 | 35.94777 | 126.95494 | 23196 ft | 485 kts | 357° |
| 2026-04-29 04:13 | 35.98135 | 126.95865 | 23176 ft | 484 kts | 357° |
| 2026-04-29 04:13 | 36.01437 | 126.96231 | 23172 ft | 482 kts | 357° |
| 2026-04-29 04:13 | 36.04780 | 126.96602 | 23169 ft | 481 kts | 357° |
| 2026-04-29 04:13 | 36.08115 | 126.96972 | 23178 ft | 480 kts | 357° |
| 2026-04-29 04:14 | 36.11447 | 126.97342 | 23173 ft | 479 kts | 357° |
| 2026-04-29 04:14 | 36.14768 | 126.97710 | 23192 ft | 479 kts | 357° |
| 2026-04-29 04:14 | 36.18095 | 126.98079 | 23185 ft | 479 kts | 357° |
| 2026-04-29 04:14 | 36.21409 | 126.98448 | 23169 ft | 478 kts | 357° |
| 2026-04-29 04:15 | 36.24725 | 126.98817 | 23176 ft | 478 kts | 357° |
| 2026-04-29 04:15 | 36.28039 | 126.99186 | 23161 ft | 478 kts | 357° |
| 2026-04-29 04:15 | 36.31358 | 126.99556 | 23187 ft | 479 kts | 357° |
| 2026-04-29 04:15 | 36.34678 | 126.99927 | 23187 ft | 479 kts | 357° |
| 2026-04-29 04:16 | 36.37965 | 127.00291 | 23167 ft | 479 kts | 356° |
| 2026-04-29 04:16 | 36.41274 | 127.00452 | 23165 ft | 474 kts | 351° |
| 2026-04-29 04:16 | 36.44558 | 127.00330 | 23173 ft | 471 kts | 349° |
| 2026-04-29 04:16 | 36.47829 | 127.00120 | 23155 ft | 470 kts | 348° |
| 2026-04-29 04:17 | 36.51100 | 126.99925 | 22638 ft | 467 kts | 349° |
| 2026-04-29 04:17 | 36.54325 | 126.99786 | 22114 ft | 459 kts | 350° |
| 2026-04-29 04:17 | 36.57496 | 126.99674 | 21550 ft | 452 kts | 350° |
| 2026-04-29 04:17 | 36.60622 | 126.99569 | 21010 ft | 445 kts | 350° |
| 2026-04-29 04:18 | 36.63661 | 126.99465 | 20461 ft | 439 kts | 350° |
| 2026-04-29 04:18 | 36.66700 | 126.99357 | 19899 ft | 434 kts | 350° |
| 2026-04-29 04:18 | 36.69700 | 126.99250 | 19366 ft | 429 kts | 351° |
| 2026-04-29 04:18 | 36.72698 | 126.99574 | 18798 ft | 442 kts | 8° |
| 2026-04-29 04:19 | 36.75530 | 127.01155 | 18264 ft | 453 kts | 28° |
| 2026-04-29 04:19 | 36.77957 | 127.03703 | 17690 ft | 454 kts | 38° |
| 2026-04-29 04:19 | 36.80236 | 127.06396 | 17077 ft | 445 kts | 39° |
| 2026-04-29 04:19 | 36.82439 | 127.09019 | 16476 ft | 430 kts | 40° |
| 2026-04-29 04:20 | 36.84577 | 127.11538 | 15898 ft | 415 kts | 40° |
| 2026-04-29 04:20 | 36.86653 | 127.13955 | 15316 ft | 402 kts | 40° |
| 2026-04-29 04:20 | 36.88675 | 127.16288 | 14765 ft | 389 kts | 40° |
| 2026-04-29 04:20 | 36.90635 | 127.18542 | 14217 ft | 377 kts | 41° |
| 2026-04-29 04:21 | 36.92511 | 127.20700 | 13651 ft | 365 kts | 40° |
| 2026-04-29 04:21 | 36.94353 | 127.22822 | 13041 ft | 355 kts | 41° |
| 2026-04-29 04:21 | 36.96152 | 127.24898 | 12431 ft | 347 kts | 40° |
| 2026-04-29 04:21 | 36.97903 | 127.26923 | 11849 ft | 339 kts | 41° |
| 2026-04-29 04:22 | 36.99618 | 127.28912 | 11281 ft | 333 kts | 41° |
| 2026-04-29 04:22 | 37.01471 | 127.30557 | 10683 ft | 324 kts | 20° |
| 2026-04-29 04:22 | 37.03643 | 127.30919 | 10304 ft | 310 kts | 353° |
| 2026-04-29 04:22 | 37.05684 | 127.30405 | 10201 ft | 291 kts | 341° |
| 2026-04-29 04:23 | 37.07472 | 127.29361 | 10085 ft | 275 kts | 332° |
| 2026-04-29 04:23 | 37.09129 | 127.28213 | 9995 ft | 277 kts | 331° |
| 2026-04-29 04:23 | 37.10802 | 127.27027 | 9890 ft | 276 kts | 331° |
| 2026-04-29 04:23 | 37.12467 | 127.25852 | 9778 ft | 274 kts | 331° |
| 2026-04-29 04:24 | 37.14123 | 127.24689 | 9664 ft | 272 kts | 331° |
| 2026-04-29 04:24 | 37.15770 | 127.23540 | 9557 ft | 270 kts | 332° |
| 2026-04-29 04:24 | 37.17413 | 127.22396 | 9344 ft | 271 kts | 332° |
| 2026-04-29 04:24 | 37.19058 | 127.21253 | 9040 ft | 269 kts | 332° |
| 2026-04-29 04:25 | 37.20696 | 127.20117 | 8757 ft | 268 kts | 332° |
| 2026-04-29 04:25 | 37.22321 | 127.18991 | 8469 ft | 266 kts | 332° |
| 2026-04-29 04:25 | 37.23939 | 127.17869 | 8185 ft | 265 kts | 332° |
| 2026-04-29 04:25 | 37.25523 | 127.16699 | 7870 ft | 264 kts | 324° |
| 2026-04-29 04:26 | 37.26889 | 127.15139 | 7533 ft | 267 kts | 316° |
| 2026-04-29 04:26 | 37.28184 | 127.13457 | 7155 ft | 269 kts | 316° |
| 2026-04-29 04:26 | 37.29468 | 127.11796 | 6783 ft | 267 kts | 316° |
| 2026-04-29 04:26 | 37.30760 | 127.10158 | 6403 ft | 261 kts | 316° |
| 2026-04-29 04:27 | 37.32019 | 127.08578 | 6055 ft | 252 kts | 317° |
| 2026-04-29 04:27 | 37.33258 | 127.07033 | 5666 ft | 248 kts | 316° |
| 2026-04-29 04:27 | 37.34470 | 127.05522 | 5366 ft | 243 kts | 316° |
| 2026-04-29 04:27 | 37.35669 | 127.04028 | 5071 ft | 243 kts | 316° |
| 2026-04-29 04:28 | 37.36876 | 127.02530 | 4757 ft | 243 kts | 316° |
| 2026-04-29 04:28 | 37.38077 | 127.01052 | 4442 ft | 240 kts | 317° |
| 2026-04-29 04:28 | 37.39258 | 126.99591 | 4149 ft | 237 kts | 316° |
| 2026-04-29 04:28 | 37.40436 | 126.98150 | 3990 ft | 234 kts | 318° |
| 2026-04-29 04:29 | 37.41600 | 126.96752 | 3711 ft | 233 kts | 317° |
| 2026-04-29 04:29 | 37.42752 | 126.95319 | 3413 ft | 227 kts | 316° |
| 2026-04-29 04:29 | 37.43840 | 126.93944 | 3104 ft | 222 kts | 316° |
| 2026-04-29 04:29 | 37.44918 | 126.92581 | 2830 ft | 218 kts | 315° |
| 2026-04-29 04:30 | 37.45987 | 126.91229 | 2516 ft | 216 kts | 315° |
| 2026-04-29 04:30 | 37.47033 | 126.89909 | 2238 ft | 209 kts | 316° |
| 2026-04-29 04:30 | 37.48975 | 126.87455 | 1708 ft | 187 kts | 316° |
| 2026-04-29 04:31 | 37.49863 | 126.86334 | 1446 ft | 176 kts | 315° |
| 2026-04-29 04:31 | 37.50715 | 126.85259 | 1228 ft | 171 kts | 315° |
| 2026-04-29 04:31 | 37.51543 | 126.84214 | 966 ft | 164 kts | 315° |
| 2026-04-29 04:31 | 37.52303 | 126.83255 | 799 ft | 146 kts | 314° |
| 2026-04-29 04:32 | 37.52988 | 126.82391 | 585 ft | 140 kts | 314° |
| 2026-04-29 04:32 | 37.53676 | 126.81523 | 431 ft | 137 kts | 314° |
| 2026-04-29 04:32 | 37.54340 | 126.80677 | 259 ft | 137 kts | 314° |
| 2026-04-29 04:32 | 37.55018 | 126.79827 | 60 ft | 134 kts | 314° |
| 2026-04-29 04:33 | 37.55571 | 126.79134 | 52 ft | 83 kts | 315° |
| 2026-04-29 04:33 | 37.55847 | 126.78846 | 48 ft | 22 kts | 15° |
| 2026-04-29 04:33 | 37.55918 | 126.78927 | 50 ft | 13 kts | 45° |
| 2026-04-29 04:33 | 37.55989 | 126.79017 | 51 ft | 19 kts | 45° |
| 2026-04-29 04:34 | 37.56006 | 126.79202 | 49 ft | 28 kts | 110° |
| 2026-04-29 04:34 | 37.55950 | 126.79458 | 52 ft | 31 kts | 97° |
| 2026-04-29 04:34 | 37.55929 | 126.79720 | 52 ft | 29 kts | 96° |
| 2026-04-29 04:34 | 37.55907 | 126.79950 | 52 ft | 21 kts | 76° |
| 2026-04-29 04:35 | 37.55971 | 126.80049 | 50 ft | 5 kts | 45° |
| 2026-04-29 04:35 | 37.55975 | 126.80053 | 51 ft | 0 kts | 45° |